F/V J. Louis Vincent — FQBL — position and weather

sailwx.info

Track history (hours):
 
Tides and Currents Weather Stations Pressure Air Temp Water Temp Dewpoint Dewpoint Depression Visibility Wind Speed Wind Dir Waves Ship Positions

F/V J. Louis Vincent

Last reported at 2015-Apr-29 14:31 UTC. Time now 2015-May-07 04:36 UTC.
Position N 43°23' E 003°42'.

Length 29 m.

Type: Fishing. MMSI: 227146600.

Date/timePositionNaut miles runAvg speedWind from/ knotsBaromVisibWave heightAir tempDewpointWater temp
2015-Apr-29 14:31N 43°23' E 003°42'1212.3
2015-Apr-29 13:32N 43°13' E 003°49'1212.1
2015-Apr-29 12:33N 43°02' E 003°56'5 4.6
2015-Apr-29 11:31N 42°57' E 003°58'3 2.5
2015-Apr-29 10:12N 42°56' E 004°02'3 3.5
2015-Apr-29 09:23N 42°56' E 004°06'5 4.2
2015-Apr-29 08:15N 42°53' E 004°12'4 3.8
2015-Apr-29 07:19N 42°51' E 004°15'2 2.2
2015-Apr-29 06:27N 42°53' E 004°14'5 4.2
2015-Apr-29 05:14N 42°58' E 004°12'18 6.5
2015-Apr-29 02:30N 43°10' E 003°55'1111.5
2015-Apr-29 01:31N 43°19' E 003°46'6 0.6
2015-Apr-28 16:15N 43°24' E 003°42'1 0.9
2015-Apr-28 15:31N 43°23' E 003°42'28 7.1
2015-Apr-28 11:33N 42°57' E 003°56'3 2.7
2015-Apr-28 10:32N 42°55' E 003°58'5 3.8
2015-Apr-28 09:11N 42°57' E 004°04'3 4.1
2015-Apr-28 08:28N 42°57' E 004°08'4 4.2
2015-Apr-28 07:30N 42°56' E 004°14'1 1.3
2015-Apr-28 06:30N 42°58' E 004°13'4 4.2
2015-Apr-28 05:33N 42°59' E 004°08'4 4.2
2015-Apr-28 04:30N 43°00' E 004°02'4 4.1
2015-Apr-28 03:33N 43°02' E 003°58'7 7.3
2015-Apr-28 02:32N 43°08' E 003°52'1111.2
2015-Apr-28 01:33N 43°18' E 003°46'6 0.7
2015-Apr-27 16:32N 43°24' E 003°42'1 1.0
2015-Apr-27 15:33N 43°23' E 003°42'1110.9
2015-Apr-27 14:32N 43°13' E 003°49'10 9.9
2015-Apr-27 13:33N 43°05' E 003°56'4 3.7
2015-Apr-27 12:33N 43°02' E 003°59'4 4.0
2015-Apr-27 11:33N 42°59' E 004°02'11 3.5
2015-Apr-27 08:25N 42°53' E 004°14'4 1.6
2015-Apr-27 06:08N 42°55' E 004°18'4 4.3
2015-Apr-27 05:14N 42°58' E 004°14'23 7.5
2015-Apr-27 02:08N 43°15' E 003°52'  
2015-Apr-24 15:11N 43°24' E 003°42'0 0.0
2015-Apr-24 14:33N 43°24' E 003°42'32 6.4
2015-Apr-24 09:33N 42°56' E 004°04'4 4.1
2015-Apr-24 08:31N 42°55' E 004°09'4 4.3
2015-Apr-24 07:29N 42°54' E 004°15'3 1.8
2015-Apr-24 05:31N 42°57' E 004°15'35 2.7
2015-Apr-23 16:33N 43°24' E 003°44'1413.4
2015-Apr-23 15:30N 43°10' E 003°51'8 3.4
2015-Apr-23 13:14N 43°03' E 003°56'3 4.0
2015-Apr-23 12:33N 43°01' E 003°58'5 4.3
2015-Apr-23 11:30N 42°58' E 004°02'4 3.2
2015-Apr-23 10:16N 42°56' E 004°07'3 3.9
2015-Apr-23 09:32N 42°55' E 004°11'5 3.9
2015-Apr-23 08:21N 42°52' E 004°15'38 5.3
2015-Apr-23 01:14N 43°22' E 003°44'2 0.3
2015-Apr-22 16:33N 43°24' E 003°42'1 1.1
2015-Apr-22 15:19N 43°22' E 003°42'911.3
2015-Apr-22 14:33N 43°14' E 003°40'16 6.4
2015-Apr-22 12:04N 42°58' E 003°37'2 4.1
2015-Apr-22 11:33N 42°56' E 003°37'5 4.3
2015-Apr-22 10:17N 42°51' E 003°36'3 3.1
2015-Apr-22 09:21N 42°48' E 003°34'4 4.3
2015-Apr-22 08:26N 42°47' E 003°29'4 4.1
2015-Apr-22 07:23N 42°43' E 003°29'2 2.5
2015-Apr-22 06:33N 42°44' E 003°31'5 4.2
2015-Apr-22 05:20N 42°49' E 003°32'33 7.9
2015-Apr-22 01:12N 43°21' E 003°41'3 0.3
2015-Apr-21 15:24N 43°24' E 003°42'23 9.9
2015-Apr-21 13:04N 43°01' E 003°43'2 4.2
2015-Apr-21 12:33N 42°59' E 003°42'4 4.3
2015-Apr-21 11:33N 42°55' E 003°39'5 4.4
2015-Apr-21 10:27N 42°51' E 003°36'3 2.8
2015-Apr-21 09:32N 42°50' E 003°33'4 3.6
2015-Apr-21 08:25N 42°46' E 003°32'4 4.9
2015-Apr-21 07:32N 42°43' E 003°29'42 2.8
2015-Apr-20 16:17N 43°24' E 003°42'9 5.0
2015-Apr-20 14:28N 43°15' E 003°41'9 7.5
2015-Apr-20 13:16N 43°06' E 003°40'5 4.3
2015-Apr-20 12:13N 43°01' E 003°39'3 3.9
2015-Apr-20 11:32N 42°59' E 003°38'4 4.3
2015-Apr-20 10:29N 42°54' E 003°38'3 2.6
2015-Apr-20 09:24N 42°53' E 003°41'139162.3
2015-Apr-20 08:32N 42°50' E 000°32'136104.6
2015-Apr-20 07:14N 42°45' E 003°37'2 2.4
2015-Apr-20 06:21N 42°47' E 003°35'  
Track history (hours):
 
Tides and Currents Weather Stations Pressure Air Temp Water Temp Dewpoint Dewpoint Depression Visibility Wind Speed Wind Dir Waves Ship Positions

F/V J. Louis Vincent

Last reported at 2015-Apr-29 14:31 UTC. Time now 2015-May-07 04:36 UTC.
Position N 43°23' E 003°42'.

Length 29 m.

Type: Fishing. MMSI: 227146600.

Date/timePositionNaut miles runAvg speedWind from/ knotsBaromVisibWave heightAir tempDewpointWater temp
2015-Apr-29 14:31N 43°23' E 003°42'1212.3
2015-Apr-29 13:32N 43°13' E 003°49'1212.1
2015-Apr-29 12:33N 43°02' E 003°56'5 4.6
2015-Apr-29 11:31N 42°57' E 003°58'3 2.5
2015-Apr-29 10:12N 42°56' E 004°02'3 3.5
2015-Apr-29 09:23N 42°56' E 004°06'5 4.2
2015-Apr-29 08:15N 42°53' E 004°12'4 3.8
2015-Apr-29 07:19N 42°51' E 004°15'2 2.2
2015-Apr-29 06:27N 42°53' E 004°14'5 4.2
2015-Apr-29 05:14N 42°58' E 004°12'18 6.5
2015-Apr-29 02:30N 43°10' E 003°55'1111.5
2015-Apr-29 01:31N 43°19' E 003°46'6 0.6
2015-Apr-28 16:15N 43°24' E 003°42'1 0.9
2015-Apr-28 15:31N 43°23' E 003°42'28 7.1
2015-Apr-28 11:33N 42°57' E 003°56'3 2.7
2015-Apr-28 10:32N 42°55' E 003°58'5 3.8
2015-Apr-28 09:11N 42°57' E 004°04'3 4.1
2015-Apr-28 08:28N 42°57' E 004°08'4 4.2
2015-Apr-28 07:30N 42°56' E 004°14'1 1.3
2015-Apr-28 06:30N 42°58' E 004°13'4 4.2
2015-Apr-28 05:33N 42°59' E 004°08'4 4.2
2015-Apr-28 04:30N 43°00' E 004°02'4 4.1
2015-Apr-28 03:33N 43°02' E 003°58'7 7.3
2015-Apr-28 02:32N 43°08' E 003°52'1111.2
2015-Apr-28 01:33N 43°18' E 003°46'6 0.7
2015-Apr-27 16:32N 43°24' E 003°42'1 1.0
2015-Apr-27 15:33N 43°23' E 003°42'1110.9
2015-Apr-27 14:32N 43°13' E 003°49'10 9.9
2015-Apr-27 13:33N 43°05' E 003°56'4 3.7
2015-Apr-27 12:33N 43°02' E 003°59'4 4.0
2015-Apr-27 11:33N 42°59' E 004°02'11 3.5
2015-Apr-27 08:25N 42°53' E 004°14'4 1.6
2015-Apr-27 06:08N 42°55' E 004°18'4 4.3
2015-Apr-27 05:14N 42°58' E 004°14'23 7.5
2015-Apr-27 02:08N 43°15' E 003°52'  
2015-Apr-24 15:11N 43°24' E 003°42'0 0.0
2015-Apr-24 14:33N 43°24' E 003°42'32 6.4
2015-Apr-24 09:33N 42°56' E 004°04'4 4.1
2015-Apr-24 08:31N 42°55' E 004°09'4 4.3
2015-Apr-24 07:29N 42°54' E 004°15'3 1.8
2015-Apr-24 05:31N 42°57' E 004°15'35 2.7
2015-Apr-23 16:33N 43°24' E 003°44'1413.4
2015-Apr-23 15:30N 43°10' E 003°51'8 3.4
2015-Apr-23 13:14N 43°03' E 003°56'3 4.0
2015-Apr-23 12:33N 43°01' E 003°58'5 4.3
2015-Apr-23 11:30N 42°58' E 004°02'4 3.2
2015-Apr-23 10:16N 42°56' E 004°07'3 3.9
2015-Apr-23 09:32N 42°55' E 004°11'5 3.9
2015-Apr-23 08:21N 42°52' E 004°15'38 5.3
2015-Apr-23 01:14N 43°22' E 003°44'2 0.3
2015-Apr-22 16:33N 43°24' E 003°42'1 1.1
2015-Apr-22 15:19N 43°22' E 003°42'911.3
2015-Apr-22 14:33N 43°14' E 003°40'16 6.4
2015-Apr-22 12:04N 42°58' E 003°37'2 4.1
2015-Apr-22 11:33N 42°56' E 003°37'5 4.3
2015-Apr-22 10:17N 42°51' E 003°36'3 3.1
2015-Apr-22 09:21N 42°48' E 003°34'4 4.3
2015-Apr-22 08:26N 42°47' E 003°29'4 4.1
2015-Apr-22 07:23N 42°43' E 003°29'2 2.5
2015-Apr-22 06:33N 42°44' E 003°31'5 4.2
2015-Apr-22 05:20N 42°49' E 003°32'33 7.9
2015-Apr-22 01:12N 43°21' E 003°41'3 0.3
2015-Apr-21 15:24N 43°24' E 003°42'23 9.9
2015-Apr-21 13:04N 43°01' E 003°43'2 4.2
2015-Apr-21 12:33N 42°59' E 003°42'4 4.3
2015-Apr-21 11:33N 42°55' E 003°39'5 4.4
2015-Apr-21 10:27N 42°51' E 003°36'3 2.8
2015-Apr-21 09:32N 42°50' E 003°33'4 3.6
2015-Apr-21 08:25N 42°46' E 003°32'4 4.9
2015-Apr-21 07:32N 42°43' E 003°29'42 2.8
2015-Apr-20 16:17N 43°24' E 003°42'9 5.0
2015-Apr-20 14:28N 43°15' E 003°41'9 7.5
2015-Apr-20 13:16N 43°06' E 003°40'5 4.3
2015-Apr-20 12:13N 43°01' E 003°39'3 3.9
2015-Apr-20 11:32N 42°59' E 003°38'4 4.3
2015-Apr-20 10:29N 42°54' E 003°38'3 2.6
2015-Apr-20 09:24N 42°53' E 003°41'139162.3
2015-Apr-20 08:32N 42°50' E 000°32'136104.6
2015-Apr-20 07:14N 42°45' E 003°37'2 2.4
2015-Apr-20 06:21N 42°47' E 003°35'  

Dump ship's entire track history